sensor_id;sensor_type;location;lat;lon;timestamp;P1;durP1;ratioP1;P2;durP2;ratioP2
45784;SDS011;31489;51.404;5.474;2023-07-31T00:00:07;13.77;;;5.18;;
45784;SDS011;31489;51.404;5.474;2023-07-31T00:02:36;17.23;;;6.13;;
45784;SDS011;31489;51.404;5.474;2023-07-31T00:05:02;13.90;;;5.57;;
45784;SDS011;31489;51.404;5.474;2023-07-31T00:07:28;13.50;;;5.38;;
45784;SDS011;31489;51.404;5.474;2023-07-31T00:09:53;16.45;;;5.15;;
45784;SDS011;31489;51.404;5.474;2023-07-31T00:12:19;10.05;;;5.13;;
45784;SDS011;31489;51.404;5.474;2023-07-31T00:14:45;13.60;;;5.00;;
45784;SDS011;31489;51.404;5.474;2023-07-31T00:17:11;11.93;;;4.78;;
45784;SDS011;31489;51.404;5.474;2023-07-31T00:19:37;12.57;;;4.80;;
45784;SDS011;31489;51.404;5.474;2023-07-31T00:22:03;14.40;;;5.10;;
45784;SDS011;31489;51.404;5.474;2023-07-31T00:24:28;12.75;;;5.45;;
45784;SDS011;31489;51.404;5.474;2023-07-31T00:26:54;12.95;;;4.82;;
45784;SDS011;31489;51.404;5.474;2023-07-31T00:29:20;12.18;;;4.40;;
45784;SDS011;31489;51.404;5.474;2023-07-31T00:31:45;12.07;;;5.00;;
45784;SDS011;31489;51.404;5.474;2023-07-31T00:34:11;11.10;;;4.78;;
45784;SDS011;31489;51.404;5.474;2023-07-31T00:36:36;9.63;;;4.55;;
45784;SDS011;31489;51.404;5.474;2023-07-31T00:39:02;14.10;;;5.53;;
45784;SDS011;31489;51.404;5.474;2023-07-31T00:41:29;11.77;;;4.80;;
45784;SDS011;31489;51.404;5.474;2023-07-31T00:43:55;12.65;;;4.95;;
45784;SDS011;31489;51.404;5.474;2023-07-31T00:46:20;12.98;;;4.38;;
45784;SDS011;31489;51.404;5.474;2023-07-31T00:48:46;12.00;;;4.88;;
45784;SDS011;31489;51.404;5.474;2023-07-31T00:51:12;10.50;;;4.53;;
45784;SDS011;31489;51.404;5.474;2023-07-31T00:53:38;13.07;;;4.68;;
45784;SDS011;31489;51.404;5.474;2023-07-31T00:56:05;13.40;;;5.10;;
45784;SDS011;31489;51.404;5.474;2023-07-31T00:58:31;11.82;;;4.93;;
45784;SDS011;31489;51.404;5.474;2023-07-31T01:00:57;12.07;;;4.40;;
45784;SDS011;31489;51.404;5.474;2023-07-31T01:03:22;12.82;;;4.60;;
45784;SDS011;31489;51.404;5.474;2023-07-31T01:08:51;9.20;;;4.70;;
45784;SDS011;31489;51.404;5.474;2023-07-31T01:11:30;13.93;;;5.00;;
45784;SDS011;31489;51.404;5.474;2023-07-31T01:13:58;12.35;;;4.93;;
45784;SDS011;31489;51.404;5.474;2023-07-31T01:16:25;11.93;;;4.85;;
45784;SDS011;31489;51.404;5.474;2023-07-31T01:18:51;10.02;;;4.57;;
45784;SDS011;31489;51.404;5.474;2023-07-31T01:26:39;12.50;;;4.45;;
45784;SDS011;31489;51.404;5.474;2023-07-31T01:31:57;11.45;;;5.00;;
45784;SDS011;31489;51.404;5.474;2023-07-31T01:34:26;13.20;;;5.15;;
45784;SDS011;31489;51.404;5.474;2023-07-31T01:36:53;12.52;;;5.15;;
45784;SDS011;31489;51.404;5.474;2023-07-31T01:39:19;12.30;;;4.95;;
45784;SDS011;31489;51.404;5.474;2023-07-31T01:41:46;15.70;;;5.80;;
45784;SDS011;31489;51.404;5.474;2023-07-31T01:44:11;13.88;;;5.57;;
45784;SDS011;31489;51.404;5.474;2023-07-31T01:46:37;10.50;;;5.10;;
45784;SDS011;31489;51.404;5.474;2023-07-31T01:49:02;12.00;;;5.40;;
45784;SDS011;31489;51.404;5.474;2023-07-31T01:51:30;12.63;;;5.00;;
45784;SDS011;31489;51.404;5.474;2023-07-31T01:53:59;13.40;;;5.20;;
45784;SDS011;31489;51.404;5.474;2023-07-31T01:56:25;12.02;;;5.20;;
45784;SDS011;31489;51.404;5.474;2023-07-31T01:58:50;12.68;;;5.43;;
45784;SDS011;31489;51.404;5.474;2023-07-31T02:01:16;17.45;;;5.68;;
45784;SDS011;31489;51.404;5.474;2023-07-31T02:03:42;12.55;;;5.38;;
45784;SDS011;31489;51.404;5.474;2023-07-31T02:06:07;12.95;;;4.95;;
45784;SDS011;31489;51.404;5.474;2023-07-31T02:08:33;14.30;;;5.68;;
45784;SDS011;31489;51.404;5.474;2023-07-31T02:10:58;13.02;;;5.20;;
45784;SDS011;31489;51.404;5.474;2023-07-31T02:13:25;14.05;;;5.80;;
45784;SDS011;31489;51.404;5.474;2023-07-31T02:15:50;11.32;;;5.50;;
45784;SDS011;31489;51.404;5.474;2023-07-31T02:18:16;14.05;;;5.57;;
45784;SDS011;31489;51.404;5.474;2023-07-31T02:20:42;14.10;;;5.63;;
45784;SDS011;31489;51.404;5.474;2023-07-31T02:23:08;13.38;;;5.13;;
45784;SDS011;31489;51.404;5.474;2023-07-31T02:25:34;14.98;;;5.13;;
45784;SDS011;31489;51.404;5.474;2023-07-31T02:27:59;14.85;;;5.35;;
45784;SDS011;31489;51.404;5.474;2023-07-31T02:30:25;15.02;;;5.32;;
45784;SDS011;31489;51.404;5.474;2023-07-31T02:32:51;11.85;;;5.40;;
45784;SDS011;31489;51.404;5.474;2023-07-31T02:35:16;17.02;;;5.60;;
45784;SDS011;31489;51.404;5.474;2023-07-31T02:37:43;15.07;;;5.65;;
45784;SDS011;31489;51.404;5.474;2023-07-31T02:40:09;17.90;;;5.55;;
45784;SDS011;31489;51.404;5.474;2023-07-31T02:42:35;12.85;;;5.38;;
45784;SDS011;31489;51.404;5.474;2023-07-31T02:45:00;13.98;;;5.45;;
45784;SDS011;31489;51.404;5.474;2023-07-31T02:47:26;12.65;;;5.72;;
45784;SDS011;31489;51.404;5.474;2023-07-31T02:49:52;10.15;;;5.40;;
45784;SDS011;31489;51.404;5.474;2023-07-31T02:52:17;12.63;;;5.10;;
45784;SDS011;31489;51.404;5.474;2023-07-31T02:54:43;12.48;;;5.13;;
45784;SDS011;31489;51.404;5.474;2023-07-31T02:57:08;15.13;;;5.53;;
45784;SDS011;31489;51.404;5.474;2023-07-31T02:59:34;17.15;;;5.43;;
45784;SDS011;31489;51.404;5.474;2023-07-31T03:02:00;12.90;;;5.10;;
45784;SDS011;31489;51.404;5.474;2023-07-31T03:04:25;13.60;;;5.82;;
45784;SDS011;31489;51.404;5.474;2023-07-31T03:06:51;12.88;;;5.13;;
45784;SDS011;31489;51.404;5.474;2023-07-31T03:09:16;15.10;;;5.30;;
45784;SDS011;31489;51.404;5.474;2023-07-31T03:11:42;13.75;;;5.07;;
45784;SDS011;31489;51.404;5.474;2023-07-31T03:14:08;13.55;;;4.82;;
45784;SDS011;31489;51.404;5.474;2023-07-31T03:16:33;11.00;;;5.13;;
45784;SDS011;31489;51.404;5.474;2023-07-31T03:18:59;13.15;;;4.82;;
45784;SDS011;31489;51.404;5.474;2023-07-31T03:21:28;12.38;;;4.82;;
45784;SDS011;31489;51.404;5.474;2023-07-31T03:23:53;11.43;;;5.47;;
45784;SDS011;31489;51.404;5.474;2023-07-31T03:26:19;18.42;;;5.95;;
45784;SDS011;31489;51.404;5.474;2023-07-31T03:28:45;13.00;;;4.97;;
45784;SDS011;31489;51.404;5.474;2023-07-31T03:31:10;13.90;;;5.10;;
45784;SDS011;31489;51.404;5.474;2023-07-31T03:33:36;11.15;;;4.85;;
45784;SDS011;31489;51.404;5.474;2023-07-31T03:36:02;13.73;;;5.68;;
45784;SDS011;31489;51.404;5.474;2023-07-31T03:38:28;16.30;;;6.05;;
45784;SDS011;31489;51.404;5.474;2023-07-31T03:40:54;11.27;;;5.05;;
45784;SDS011;31489;51.404;5.474;2023-07-31T03:43:19;13.57;;;4.93;;
45784;SDS011;31489;51.404;5.474;2023-07-31T03:45:45;12.70;;;4.72;;
45784;SDS011;31489;51.404;5.474;2023-07-31T03:48:11;14.18;;;4.80;;
45784;SDS011;31489;51.404;5.474;2023-07-31T03:50:36;16.13;;;4.82;;
45784;SDS011;31489;51.404;5.474;2023-07-31T03:53:02;11.80;;;5.07;;
45784;SDS011;31489;51.404;5.474;2023-07-31T03:55:28;13.65;;;4.80;;
45784;SDS011;31489;51.404;5.474;2023-07-31T03:57:53;16.05;;;5.60;;
45784;SDS011;31489;51.404;5.474;2023-07-31T04:00:19;12.60;;;4.80;;
45784;SDS011;31489;51.404;5.474;2023-07-31T04:02:45;14.40;;;5.13;;
45784;SDS011;31489;51.404;5.474;2023-07-31T04:05:11;14.35;;;5.13;;
45784;SDS011;31489;51.404;5.474;2023-07-31T04:07:37;11.23;;;5.32;;
45784;SDS011;31489;51.404;5.474;2023-07-31T04:10:03;16.27;;;5.32;;
45784;SDS011;31489;51.404;5.474;2023-07-31T04:12:28;10.75;;;4.60;;
45784;SDS011;31489;51.404;5.474;2023-07-31T04:14:54;13.05;;;4.53;;
45784;SDS011;31489;51.404;5.474;2023-07-31T04:17:22;9.85;;;5.15;;
45784;SDS011;31489;51.404;5.474;2023-07-31T04:19:48;13.00;;;5.25;;
45784;SDS011;31489;51.404;5.474;2023-07-31T04:22:14;8.45;;;4.68;;
45784;SDS011;31489;51.404;5.474;2023-07-31T04:24:39;15.55;;;4.57;;
45784;SDS011;31489;51.404;5.474;2023-07-31T04:27:05;13.05;;;5.22;;
45784;SDS011;31489;51.404;5.474;2023-07-31T04:29:31;13.77;;;4.85;;
45784;SDS011;31489;51.404;5.474;2023-07-31T04:31:56;11.57;;;5.00;;
45784;SDS011;31489;51.404;5.474;2023-07-31T04:34:22;13.10;;;4.07;;
45784;SDS011;31489;51.404;5.474;2023-07-31T04:36:47;11.52;;;4.68;;
45784;SDS011;31489;51.404;5.474;2023-07-31T04:39:13;11.88;;;4.75;;
45784;SDS011;31489;51.404;5.474;2023-07-31T04:41:39;10.35;;;4.95;;
45784;SDS011;31489;51.404;5.474;2023-07-31T04:44:04;10.82;;;4.82;;
45784;SDS011;31489;51.404;5.474;2023-07-31T04:46:30;14.30;;;4.90;;
45784;SDS011;31489;51.404;5.474;2023-07-31T04:48:56;11.75;;;4.93;;
45784;SDS011;31489;51.404;5.474;2023-07-31T04:51:22;8.82;;;4.30;;
45784;SDS011;31489;51.404;5.474;2023-07-31T04:53:48;10.88;;;4.78;;
45784;SDS011;31489;51.404;5.474;2023-07-31T04:56:14;11.45;;;4.93;;
45784;SDS011;31489;51.404;5.474;2023-07-31T04:58:40;8.80;;;4.90;;
45784;SDS011;31489;51.404;5.474;2023-07-31T05:01:06;12.77;;;4.70;;
45784;SDS011;31489;51.404;5.474;2023-07-31T05:03:32;9.60;;;4.70;;
45784;SDS011;31489;51.404;5.474;2023-07-31T05:05:57;5.82;;;3.83;;
45784;SDS011;31489;51.404;5.474;2023-07-31T05:08:23;9.93;;;3.58;;
45784;SDS011;31489;51.404;5.474;2023-07-31T05:10:51;7.55;;;3.95;;
45784;SDS011;31489;51.404;5.474;2023-07-31T05:13:17;7.78;;;3.90;;
45784;SDS011;31489;51.404;5.474;2023-07-31T05:15:43;6.97;;;3.60;;
45784;SDS011;31489;51.404;5.474;2023-07-31T05:18:08;8.15;;;4.15;;
45784;SDS011;31489;51.404;5.474;2023-07-31T05:20:34;6.53;;;4.00;;
45784;SDS011;31489;51.404;5.474;2023-07-31T05:23:00;7.05;;;4.00;;
45784;SDS011;31489;51.404;5.474;2023-07-31T05:25:25;7.15;;;3.58;;
45784;SDS011;31489;51.404;5.474;2023-07-31T05:27:51;7.53;;;3.83;;
45784;SDS011;31489;51.404;5.474;2023-07-31T05:30:17;6.45;;;3.67;;
45784;SDS011;31489;51.404;5.474;2023-07-31T05:32:42;6.50;;;3.67;;
45784;SDS011;31489;51.404;5.474;2023-07-31T05:35:08;6.05;;;3.47;;
45784;SDS011;31489;51.404;5.474;2023-07-31T05:37:34;4.90;;;3.45;;
45784;SDS011;31489;51.404;5.474;2023-07-31T05:40:00;5.88;;;3.53;;
45784;SDS011;31489;51.404;5.474;2023-07-31T05:42:25;4.63;;;3.35;;
45784;SDS011;31489;51.404;5.474;2023-07-31T05:44:51;6.88;;;3.63;;
45784;SDS011;31489;51.404;5.474;2023-07-31T05:47:17;4.55;;;3.63;;
45784;SDS011;31489;51.404;5.474;2023-07-31T05:49:43;6.65;;;3.30;;
45784;SDS011;31489;51.404;5.474;2023-07-31T05:52:09;5.80;;;3.70;;
45784;SDS011;31489;51.404;5.474;2023-07-31T05:54:35;5.28;;;3.17;;
45784;SDS011;31489;51.404;5.474;2023-07-31T05:57:00;5.03;;;3.28;;
45784;SDS011;31489;51.404;5.474;2023-07-31T05:59:26;13.18;;;4.05;;
45784;SDS011;31489;51.404;5.474;2023-07-31T06:01:52;6.43;;;3.47;;
45784;SDS011;31489;51.404;5.474;2023-07-31T06:04:21;5.45;;;3.28;;
45784;SDS011;31489;51.404;5.474;2023-07-31T06:06:46;5.60;;;3.58;;
45784;SDS011;31489;51.404;5.474;2023-07-31T06:09:12;5.85;;;3.47;;
45784;SDS011;31489;51.404;5.474;2023-07-31T06:11:39;6.00;;;3.38;;
45784;SDS011;31489;51.404;5.474;2023-07-31T06:14:04;4.80;;;3.25;;
45784;SDS011;31489;51.404;5.474;2023-07-31T06:16:30;7.45;;;4.00;;
45784;SDS011;31489;51.404;5.474;2023-07-31T06:18:56;5.72;;;3.97;;
45784;SDS011;31489;51.404;5.474;2023-07-31T06:21:21;7.22;;;3.95;;
45784;SDS011;31489;51.404;5.474;2023-07-31T06:23:47;5.68;;;3.67;;
45784;SDS011;31489;51.404;5.474;2023-07-31T06:26:13;5.35;;;3.70;;
45784;SDS011;31489;51.404;5.474;2023-07-31T06:28:39;6.40;;;3.95;;
45784;SDS011;31489;51.404;5.474;2023-07-31T06:31:05;6.55;;;3.67;;
45784;SDS011;31489;51.404;5.474;2023-07-31T06:33:30;5.45;;;3.80;;
45784;SDS011;31489;51.404;5.474;2023-07-31T06:35:56;4.63;;;3.78;;
45784;SDS011;31489;51.404;5.474;2023-07-31T06:38:23;4.85;;;3.38;;
45784;SDS011;31489;51.404;5.474;2023-07-31T06:40:51;3.72;;;3.10;;
45784;SDS011;31489;51.404;5.474;2023-07-31T06:43:17;5.75;;;3.42;;
45784;SDS011;31489;51.404;5.474;2023-07-31T06:45:42;5.50;;;3.58;;
45784;SDS011;31489;51.404;5.474;2023-07-31T06:48:08;4.82;;;3.10;;
45784;SDS011;31489;51.404;5.474;2023-07-31T06:50:33;5.68;;;3.20;;
45784;SDS011;31489;51.404;5.474;2023-07-31T06:52:59;4.85;;;3.10;;
45784;SDS011;31489;51.404;5.474;2023-07-31T06:55:25;4.43;;;3.03;;
45784;SDS011;31489;51.404;5.474;2023-07-31T06:57:52;4.45;;;2.88;;
45784;SDS011;31489;51.404;5.474;2023-07-31T07:00:19;4.10;;;2.75;;
45784;SDS011;31489;51.404;5.474;2023-07-31T07:02:46;6.72;;;3.38;;
45784;SDS011;31489;51.404;5.474;2023-07-31T07:05:15;4.50;;;3.05;;
45784;SDS011;31489;51.404;5.474;2023-07-31T07:07:42;4.30;;;2.78;;
45784;SDS011;31489;51.404;5.474;2023-07-31T07:10:08;4.32;;;2.80;;
45784;SDS011;31489;51.404;5.474;2023-07-31T07:12:34;6.00;;;3.10;;
45784;SDS011;31489;51.404;5.474;2023-07-31T07:15:01;4.90;;;2.85;;
45784;SDS011;31489;51.404;5.474;2023-07-31T07:17:27;3.08;;;2.67;;
45784;SDS011;31489;51.404;5.474;2023-07-31T07:19:56;3.33;;;2.80;;
45784;SDS011;31489;51.404;5.474;2023-07-31T07:22:22;3.15;;;2.53;;
45784;SDS011;31489;51.404;5.474;2023-07-31T07:24:48;6.18;;;2.63;;
45784;SDS011;31489;51.404;5.474;2023-07-31T07:27:13;3.58;;;2.63;;
45784;SDS011;31489;51.404;5.474;2023-07-31T07:29:40;3.63;;;2.85;;
45784;SDS011;31489;51.404;5.474;2023-07-31T07:32:05;6.28;;;3.00;;
45784;SDS011;31489;51.404;5.474;2023-07-31T07:34:31;4.20;;;2.72;;
45784;SDS011;31489;51.404;5.474;2023-07-31T07:36:57;3.65;;;2.58;;
45784;SDS011;31489;51.404;5.474;2023-07-31T07:39:22;3.85;;;2.65;;
45784;SDS011;31489;51.404;5.474;2023-07-31T07:41:48;4.38;;;2.78;;
45784;SDS011;31489;51.404;5.474;2023-07-31T07:44:14;3.10;;;2.75;;
45784;SDS011;31489;51.404;5.474;2023-07-31T07:46:40;5.30;;;3.42;;
45784;SDS011;31489;51.404;5.474;2023-07-31T07:49:06;5.15;;;2.95;;
45784;SDS011;31489;51.404;5.474;2023-07-31T07:51:31;4.22;;;3.30;;
45784;SDS011;31489;51.404;5.474;2023-07-31T07:53:57;5.95;;;3.20;;
45784;SDS011;31489;51.404;5.474;2023-07-31T07:56:27;7.05;;;3.50;;
45784;SDS011;31489;51.404;5.474;2023-07-31T07:58:53;4.55;;;3.20;;
45784;SDS011;31489;51.404;5.474;2023-07-31T08:01:19;8.25;;;4.13;;
45784;SDS011;31489;51.404;5.474;2023-07-31T08:03:46;8.55;;;4.00;;
45784;SDS011;31489;51.404;5.474;2023-07-31T08:06:12;7.22;;;3.88;;
45784;SDS011;31489;51.404;5.474;2023-07-31T08:08:39;6.25;;;3.88;;
45784;SDS011;31489;51.404;5.474;2023-07-31T08:11:05;8.13;;;3.70;;
45784;SDS011;31489;51.404;5.474;2023-07-31T08:13:31;7.35;;;3.88;;
45784;SDS011;31489;51.404;5.474;2023-07-31T08:15:56;7.07;;;3.75;;
45784;SDS011;31489;51.404;5.474;2023-07-31T08:18:22;7.28;;;4.05;;
45784;SDS011;31489;51.404;5.474;2023-07-31T08:20:48;8.30;;;4.60;;
45784;SDS011;31489;51.404;5.474;2023-07-31T08:23:14;5.95;;;3.85;;
45784;SDS011;31489;51.404;5.474;2023-07-31T08:25:40;4.70;;;3.30;;
45784;SDS011;31489;51.404;5.474;2023-07-31T08:28:06;6.20;;;3.78;;
45784;SDS011;31489;51.404;5.474;2023-07-31T08:30:32;5.20;;;3.72;;
45784;SDS011;31489;51.404;5.474;2023-07-31T08:33:01;6.97;;;4.15;;
45784;SDS011;31489;51.404;5.474;2023-07-31T08:35:27;4.47;;;3.28;;
45784;SDS011;31489;51.404;5.474;2023-07-31T08:37:53;6.38;;;3.40;;
45784;SDS011;31489;51.404;5.474;2023-07-31T08:40:21;4.60;;;2.90;;
45784;SDS011;31489;51.404;5.474;2023-07-31T08:42:48;7.60;;;3.45;;
45784;SDS011;31489;51.404;5.474;2023-07-31T08:45:15;3.88;;;2.88;;
45784;SDS011;31489;51.404;5.474;2023-07-31T08:47:45;7.63;;;4.28;;
45784;SDS011;31489;51.404;5.474;2023-07-31T08:50:15;10.25;;;3.63;;
45784;SDS011;31489;51.404;5.474;2023-07-31T08:52:43;6.65;;;3.75;;
45784;SDS011;31489;51.404;5.474;2023-07-31T08:55:09;7.63;;;4.13;;
45784;SDS011;31489;51.404;5.474;2023-07-31T08:57:35;7.10;;;3.80;;
45784;SDS011;31489;51.404;5.474;2023-07-31T09:00:02;5.40;;;3.42;;
45784;SDS011;31489;51.404;5.474;2023-07-31T09:02:52;8.20;;;3.72;;
45784;SDS011;31489;51.404;5.474;2023-07-31T09:05:16;8.52;;;3.67;;
45784;SDS011;31489;51.404;5.474;2023-07-31T09:07:43;6.63;;;3.53;;
45784;SDS011;31489;51.404;5.474;2023-07-31T09:10:12;8.68;;;3.60;;
45784;SDS011;31489;51.404;5.474;2023-07-31T09:12:38;5.55;;;3.88;;
45784;SDS011;31489;51.404;5.474;2023-07-31T09:15:04;7.65;;;4.03;;
45784;SDS011;31489;51.404;5.474;2023-07-31T09:17:34;4.50;;;3.47;;
45784;SDS011;31489;51.404;5.474;2023-07-31T09:22:46;5.57;;;3.60;;
45784;SDS011;31489;51.404;5.474;2023-07-31T09:27:51;6.90;;;3.33;;
45784;SDS011;31489;51.404;5.474;2023-07-31T09:30:22;7.28;;;3.60;;
45784;SDS011;31489;51.404;5.474;2023-07-31T09:32:49;8.80;;;4.20;;
45784;SDS011;31489;51.404;5.474;2023-07-31T09:35:19;7.78;;;3.88;;
45784;SDS011;31489;51.404;5.474;2023-07-31T09:37:50;5.00;;;3.45;;
45784;SDS011;31489;51.404;5.474;2023-07-31T09:40:34;5.95;;;3.53;;
45784;SDS011;31489;51.404;5.474;2023-07-31T09:43:05;5.53;;;3.60;;
45784;SDS011;31489;51.404;5.474;2023-07-31T09:45:38;6.97;;;3.88;;
45784;SDS011;31489;51.404;5.474;2023-07-31T09:48:07;5.80;;;3.45;;
45784;SDS011;31489;51.404;5.474;2023-07-31T09:50:37;7.43;;;3.65;;
45784;SDS011;31489;51.404;5.474;2023-07-31T09:53:04;6.25;;;3.50;;
45784;SDS011;31489;51.404;5.474;2023-07-31T09:55:31;6.13;;;3.70;;
45784;SDS011;31489;51.404;5.474;2023-07-31T09:57:58;6.43;;;3.30;;
45784;SDS011;31489;51.404;5.474;2023-07-31T10:00:24;6.22;;;3.22;;
45784;SDS011;31489;51.404;5.474;2023-07-31T10:02:53;3.92;;;2.83;;
45784;SDS011;31489;51.404;5.474;2023-07-31T10:05:19;5.20;;;3.33;;
45784;SDS011;31489;51.404;5.474;2023-07-31T10:08:07;5.35;;;3.58;;
45784;SDS011;31489;51.404;5.474;2023-07-31T10:10:34;4.40;;;3.10;;
45784;SDS011;31489;51.404;5.474;2023-07-31T10:13:01;8.52;;;3.22;;
45784;SDS011;31489;51.404;5.474;2023-07-31T10:15:29;4.50;;;2.78;;
45784;SDS011;31489;51.404;5.474;2023-07-31T10:17:55;7.15;;;3.22;;
45784;SDS011;31489;51.404;5.474;2023-07-31T10:20:22;4.82;;;2.90;;
45784;SDS011;31489;51.404;5.474;2023-07-31T10:22:48;7.00;;;3.17;;
45784;SDS011;31489;51.404;5.474;2023-07-31T10:25:17;6.35;;;3.20;;
45784;SDS011;31489;51.404;5.474;2023-07-31T10:27:44;5.22;;;2.75;;
45784;SDS011;31489;51.404;5.474;2023-07-31T10:30:14;3.42;;;2.88;;
45784;SDS011;31489;51.404;5.474;2023-07-31T10:32:43;8.73;;;3.47;;
45784;SDS011;31489;51.404;5.474;2023-07-31T10:35:10;3.42;;;2.40;;
45784;SDS011;31489;51.404;5.474;2023-07-31T10:37:38;5.00;;;3.15;;
45784;SDS011;31489;51.404;5.474;2023-07-31T10:40:17;6.25;;;3.08;;
45784;SDS011;31489;51.404;5.474;2023-07-31T10:42:51;6.00;;;3.05;;
45784;SDS011;31489;51.404;5.474;2023-07-31T10:45:34;8.10;;;2.90;;
45784;SDS011;31489;51.404;5.474;2023-07-31T10:48:04;5.10;;;2.80;;
45784;SDS011;31489;51.404;5.474;2023-07-31T10:50:31;3.83;;;2.97;;
45784;SDS011;31489;51.404;5.474;2023-07-31T10:53:01;4.82;;;2.88;;
45784;SDS011;31489;51.404;5.474;2023-07-31T10:55:32;3.25;;;2.45;;
45784;SDS011;31489;51.404;5.474;2023-07-31T10:58:11;6.75;;;2.97;;
45784;SDS011;31489;51.404;5.474;2023-07-31T11:00:38;5.18;;;3.15;;
45784;SDS011;31489;51.404;5.474;2023-07-31T11:03:06;5.53;;;3.25;;
45784;SDS011;31489;51.404;5.474;2023-07-31T11:08:34;4.85;;;3.00;;
45784;SDS011;31489;51.404;5.474;2023-07-31T11:11:07;6.00;;;3.10;;
45784;SDS011;31489;51.404;5.474;2023-07-31T11:13:39;7.72;;;3.20;;
45784;SDS011;31489;51.404;5.474;2023-07-31T11:16:10;5.28;;;3.10;;
45784;SDS011;31489;51.404;5.474;2023-07-31T11:18:40;4.68;;;3.45;;
45784;SDS011;31489;51.404;5.474;2023-07-31T11:21:06;4.88;;;3.08;;
45784;SDS011;31489;51.404;5.474;2023-07-31T11:23:33;5.00;;;3.20;;
45784;SDS011;31489;51.404;5.474;2023-07-31T11:26:01;7.65;;;3.08;;
45784;SDS011;31489;51.404;5.474;2023-07-31T11:28:31;5.10;;;3.05;;
45784;SDS011;31489;51.404;5.474;2023-07-31T11:30:58;5.38;;;2.97;;
45784;SDS011;31489;51.404;5.474;2023-07-31T11:33:24;5.10;;;2.63;;
45784;SDS011;31489;51.404;5.474;2023-07-31T11:35:50;4.63;;;2.83;;
45784;SDS011;31489;51.404;5.474;2023-07-31T11:38:22;6.53;;;3.00;;
45784;SDS011;31489;51.404;5.474;2023-07-31T11:40:49;4.25;;;2.80;;
45784;SDS011;31489;51.404;5.474;2023-07-31T11:43:15;2.72;;;2.30;;
45784;SDS011;31489;51.404;5.474;2023-07-31T11:45:49;2.92;;;2.38;;
45784;SDS011;31489;51.404;5.474;2023-07-31T11:48:22;5.80;;;2.78;;
45784;SDS011;31489;51.404;5.474;2023-07-31T11:50:50;4.45;;;2.55;;
45784;SDS011;31489;51.404;5.474;2023-07-31T11:53:18;3.90;;;2.42;;
45784;SDS011;31489;51.404;5.474;2023-07-31T11:55:49;2.78;;;2.15;;
45784;SDS011;31489;51.404;5.474;2023-07-31T11:58:15;4.60;;;2.58;;
45784;SDS011;31489;51.404;5.474;2023-07-31T12:00:42;4.03;;;2.45;;
45784;SDS011;31489;51.404;5.474;2023-07-31T12:03:08;3.78;;;2.75;;
45784;SDS011;31489;51.404;5.474;2023-07-31T12:05:34;3.42;;;2.47;;
45784;SDS011;31489;51.404;5.474;2023-07-31T12:08:01;5.00;;;2.65;;
45784;SDS011;31489;51.404;5.474;2023-07-31T12:10:35;4.80;;;3.00;;
45784;SDS011;31489;51.404;5.474;2023-07-31T12:13:02;4.00;;;2.70;;
45784;SDS011;31489;51.404;5.474;2023-07-31T12:17:57;5.30;;;3.00;;
45784;SDS011;31489;51.404;5.474;2023-07-31T12:20:23;5.57;;;3.10;;
45784;SDS011;31489;51.404;5.474;2023-07-31T12:22:49;4.65;;;2.70;;
45784;SDS011;31489;51.404;5.474;2023-07-31T12:25:15;4.05;;;3.25;;
45784;SDS011;31489;51.404;5.474;2023-07-31T12:27:44;6.68;;;3.33;;
45784;SDS011;31489;51.404;5.474;2023-07-31T12:32:57;3.90;;;3.20;;
45784;SDS011;31489;51.404;5.474;2023-07-31T12:35:33;6.07;;;3.40;;
45784;SDS011;31489;51.404;5.474;2023-07-31T12:38:01;5.88;;;3.58;;
45784;SDS011;31489;51.404;5.474;2023-07-31T12:40:27;6.03;;;3.88;;
45784;SDS011;31489;51.404;5.474;2023-07-31T12:42:53;7.35;;;3.75;;
45784;SDS011;31489;51.404;5.474;2023-07-31T12:45:18;6.85;;;3.65;;
45784;SDS011;31489;51.404;5.474;2023-07-31T12:47:46;8.90;;;4.72;;
45784;SDS011;31489;51.404;5.474;2023-07-31T12:50:12;10.30;;;3.85;;
45784;SDS011;31489;51.404;5.474;2023-07-31T12:52:37;5.90;;;3.90;;
45784;SDS011;31489;51.404;5.474;2023-07-31T12:55:03;6.78;;;4.00;;
45784;SDS011;31489;51.404;5.474;2023-07-31T12:57:29;6.22;;;3.85;;
45784;SDS011;31489;51.404;5.474;2023-07-31T12:59:55;11.82;;;3.95;;
45784;SDS011;31489;51.404;5.474;2023-07-31T13:02:21;8.13;;;4.05;;
45784;SDS011;31489;51.404;5.474;2023-07-31T13:04:47;7.60;;;3.95;;
45784;SDS011;31489;51.404;5.474;2023-07-31T13:07:15;8.55;;;4.22;;
45784;SDS011;31489;51.404;5.474;2023-07-31T13:09:41;7.93;;;3.88;;
45784;SDS011;31489;51.404;5.474;2023-07-31T13:12:06;7.95;;;4.35;;
45784;SDS011;31489;51.404;5.474;2023-07-31T13:14:32;9.55;;;4.35;;
45784;SDS011;31489;51.404;5.474;2023-07-31T13:16:58;9.90;;;4.18;;
45784;SDS011;31489;51.404;5.474;2023-07-31T13:19:24;8.02;;;3.90;;
45784;SDS011;31489;51.404;5.474;2023-07-31T13:21:50;9.75;;;4.28;;
45784;SDS011;31489;51.404;5.474;2023-07-31T13:24:15;10.48;;;4.10;;
45784;SDS011;31489;51.404;5.474;2023-07-31T13:26:41;10.75;;;3.83;;
45784;SDS011;31489;51.404;5.474;2023-07-31T13:29:07;8.80;;;4.25;;
45784;SDS011;31489;51.404;5.474;2023-07-31T13:31:32;8.20;;;4.35;;
45784;SDS011;31489;51.404;5.474;2023-07-31T13:33:58;7.65;;;4.38;;
45784;SDS011;31489;51.404;5.474;2023-07-31T13:36:24;5.45;;;4.00;;
45784;SDS011;31489;51.404;5.474;2023-07-31T13:38:50;8.52;;;4.22;;
45784;SDS011;31489;51.404;5.474;2023-07-31T13:41:15;7.22;;;4.43;;
45784;SDS011;31489;51.404;5.474;2023-07-31T13:43:41;8.20;;;4.32;;
45784;SDS011;31489;51.404;5.474;2023-07-31T13:46:07;7.63;;;4.38;;
45784;SDS011;31489;51.404;5.474;2023-07-31T13:48:34;7.55;;;4.20;;
45784;SDS011;31489;51.404;5.474;2023-07-31T13:51:00;8.85;;;4.20;;
45784;SDS011;31489;51.404;5.474;2023-07-31T13:53:26;9.75;;;3.78;;
45784;SDS011;31489;51.404;5.474;2023-07-31T13:55:52;6.97;;;4.30;;
45784;SDS011;31489;51.404;5.474;2023-07-31T13:58:18;8.80;;;4.13;;
45784;SDS011;31489;51.404;5.474;2023-07-31T14:00:46;8.65;;;4.80;;
45784;SDS011;31489;51.404;5.474;2023-07-31T14:03:12;9.48;;;4.40;;
45784;SDS011;31489;51.404;5.474;2023-07-31T14:05:37;7.63;;;3.72;;
45784;SDS011;31489;51.404;5.474;2023-07-31T14:08:03;8.13;;;4.10;;
45784;SDS011;31489;51.404;5.474;2023-07-31T14:10:31;7.70;;;4.40;;
45784;SDS011;31489;51.404;5.474;2023-07-31T14:12:57;6.60;;;3.88;;
45784;SDS011;31489;51.404;5.474;2023-07-31T14:15:23;7.13;;;4.28;;
45784;SDS011;31489;51.404;5.474;2023-07-31T14:17:49;6.95;;;3.97;;
45784;SDS011;31489;51.404;5.474;2023-07-31T14:20:14;9.02;;;4.10;;
45784;SDS011;31489;51.404;5.474;2023-07-31T14:22:40;8.82;;;4.22;;
45784;SDS011;31489;51.404;5.474;2023-07-31T14:25:06;9.52;;;4.97;;
45784;SDS011;31489;51.404;5.474;2023-07-31T14:27:35;7.95;;;4.78;;
45784;SDS011;31489;51.404;5.474;2023-07-31T14:30:01;7.13;;;4.43;;
45784;SDS011;31489;51.404;5.474;2023-07-31T14:32:27;9.20;;;4.55;;
45784;SDS011;31489;51.404;5.474;2023-07-31T14:34:53;9.02;;;4.38;;
45784;SDS011;31489;51.404;5.474;2023-07-31T14:37:20;8.73;;;3.75;;
45784;SDS011;31489;51.404;5.474;2023-07-31T14:39:45;5.88;;;3.83;;
45784;SDS011;31489;51.404;5.474;2023-07-31T14:42:11;6.63;;;3.85;;
45784;SDS011;31489;51.404;5.474;2023-07-31T14:44:37;5.68;;;3.17;;
45784;SDS011;31489;51.404;5.474;2023-07-31T14:47:03;6.75;;;3.22;;
45784;SDS011;31489;51.404;5.474;2023-07-31T14:49:29;5.65;;;3.20;;
45784;SDS011;31489;51.404;5.474;2023-07-31T14:51:54;5.32;;;3.08;;
45784;SDS011;31489;51.404;5.474;2023-07-31T14:54:23;5.75;;;2.92;;
45784;SDS011;31489;51.404;5.474;2023-07-31T14:56:49;3.53;;;2.78;;
45784;SDS011;31489;51.404;5.474;2023-07-31T14:59:14;5.25;;;3.03;;
45784;SDS011;31489;51.404;5.474;2023-07-31T15:01:40;5.13;;;3.08;;
45784;SDS011;31489;51.404;5.474;2023-07-31T15:04:06;6.10;;;3.10;;